Time;durP1;ratioP1;P1;durP2;ratioP2;P2;SDS_P1;SDS_P2;PMS_P1;PMS_P2;Temp;Humidity;BMP_temperature;BMP_pressure;BME280_temperature;BME280_humidity;BME280_pressure;Samples;Min_cycle;Max_cycle;Signal;HPM_P1;HPM_P2
2022/06/10 00:00:32;;;;;;;18.55;11.57;;;;;;;16.93;100.00;98231.13;4500442;31;20127;-74
2022/06/10 00:03:00;;;;;;;16.70;11.10;;;;;;;16.91;100.00;98221.75;4501153;31;20135;-74
2022/06/10 00:05:29;;;;;;;22.20;12.45;;;;;;;16.92;100.00;98228.69;4500959;31;20088;-74
2022/06/10 00:07:57;;;;;;;18.75;12.18;;;;;;;16.93;100.00;98228.47;4501241;31;20514;-75
2022/06/10 00:10:26;;;;;;;19.48;13.13;;;;;;;16.95;100.00;98239.69;4500686;31;20100;-75
2022/06/10 00:12:53;;;;;;;22.77;12.32;;;;;;;16.97;100.00;98231.56;4500886;31;20088;-75
2022/06/10 00:15:21;;;;;;;17.25;11.48;;;;;;;16.96;100.00;98222.81;4500940;31;20092;-75
2022/06/10 00:17:49;;;;;;;16.62;12.32;;;;;;;16.94;100.00;98226.66;4501004;31;20122;-75
2022/06/10 00:20:18;;;;;;;21.00;11.68;;;;;;;16.86;100.00;98222.28;4500881;31;20088;-75
2022/06/10 00:22:46;;;;;;;23.12;12.55;;;;;;;16.95;100.00;98223.00;4501111;31;20084;-75
2022/06/10 00:25:14;;;;;;;18.45;12.52;;;;;;;16.83;100.00;98218.19;4500665;31;20091;-75
2022/06/10 00:27:41;;;;;;;17.58;11.98;;;;;;;16.89;100.00;98229.88;4500918;31;20084;-75
2022/06/10 00:30:09;;;;;;;21.73;13.13;;;;;;;16.95;100.00;98226.44;4500682;31;20126;-75
2022/06/10 00:32:37;;;;;;;20.10;12.70;;;;;;;16.94;100.00;98230.13;4514424;31;20118;-75
2022/06/10 00:35:05;;;;;;;18.52;13.15;;;;;;;16.91;100.00;98222.56;4516475;31;20156;-75
2022/06/10 00:37:32;;;;;;;20.88;12.82;;;;;;;16.85;100.00;98221.47;4516684;31;20096;-75
2022/06/10 00:40:00;;;;;;;18.90;12.43;;;;;;;16.85;100.00;98229.41;4516521;31;20096;-75
2022/06/10 00:42:27;;;;;;;17.90;12.50;;;;;;;16.92;100.00;98237.41;4516275;31;20095;-75
2022/06/10 00:44:54;;;;;;;20.00;12.55;;;;;;;16.84;100.00;98233.06;4516554;31;20091;-75
2022/06/10 00:47:40;;;;;;;17.75;13.32;;;;;;;16.87;100.00;98239.03;4516434;31;20092;-75
2022/06/10 00:50:16;;;;;;;19.15;13.30;;;;;;;16.81;100.00;98249.31;4502192;31;20115;-75
2022/06/10 00:52:56;;;;;;;18.33;13.40;;;;;;;16.80;100.00;98238.91;4502062;31;20126;-75
2022/06/10 00:55:28;;;;;;;17.48;12.70;;;;;;;16.85;100.00;98239.16;4502067;31;20087;-75
2022/06/10 00:58:17;;;;;;;19.80;13.20;;;;;;;16.79;100.00;98242.56;4516632;31;20100;-75
2022/06/10 01:00:45;;;;;;;22.13;14.85;;;;;;;16.81;100.00;98253.78;4502049;31;20092;-75
2022/06/10 01:03:12;;;;;;;20.62;12.02;;;;;;;16.80;100.00;98257.44;4516265;31;20152;-75
2022/06/10 01:05:39;;;;;;;17.87;12.68;;;;;;;16.83;100.00;98252.56;4516259;31;20087;-75
2022/06/10 01:08:10;;;;;;;16.02;12.37;;;;;;;16.84;100.00;98248.94;4516284;31;20114;-75
2022/06/10 01:11:12;;;;;;;18.92;13.07;;;;;;;16.83;100.00;98251.75;4501758;31;20545;-75
2022/06/10 01:13:57;;;;;;;16.60;12.43;;;;;;;16.88;100.00;98245.94;4516094;31;20647;-75
2022/06/10 01:16:34;;;;;;;15.18;11.50;;;;;;;16.82;100.00;98250.94;4516094;31;20087;-75
2022/06/10 01:19:40;;;;;;;16.62;11.57;;;;;;;16.83;100.00;98249.94;4516201;31;20138;-75
2022/06/10 01:22:32;;;;;;;16.10;11.63;;;;;;;16.82;100.00;98260.69;4509840;31;20124;-75
2022/06/10 01:25:02;;;;;;;24.60;13.48;;;;;;;16.87;100.00;98265.47;4515991;31;20119;-75
2022/06/10 01:27:51;;;;;;;19.52;13.30;;;;;;;16.80;100.00;98263.53;4516459;31;20110;-75
2022/06/10 01:30:51;;;;;;;19.70;13.05;;;;;;;16.82;100.00;98266.81;4516071;31;20465;-75
2022/06/10 01:33:18;;;;;;;22.70;13.73;;;;;;;16.85;100.00;98262.97;4485691;31;20115;-75
2022/06/10 01:36:04;;;;;;;19.48;13.77;;;;;;;16.81;100.00;98267.81;4500045;31;20087;-75
2022/06/10 01:38:35;;;;;;;18.75;13.75;;;;;;;16.79;100.00;98267.22;4498658;31;20088;-75
2022/06/10 01:41:17;;;;;;;19.85;14.55;;;;;;;16.81;100.00;98267.81;4499954;31;20356;-75
2022/06/10 01:43:52;;;;;;;18.90;13.38;;;;;;;16.74;100.00;98263.47;4499867;31;20092;-75
2022/06/10 01:46:30;;;;;;;22.17;14.07;;;;;;;16.74;100.00;98261.66;4499847;31;20110;-75
2022/06/10 01:49:18;;;;;;;18.75;14.55;;;;;;;16.65;100.00;98271.56;4499801;31;20141;-75
2022/06/10 01:52:09;;;;;;;20.80;14.23;;;;;;;16.67;100.00;98274.00;4485425;31;20435;-75
2022/06/10 01:54:53;;;;;;;21.42;13.38;;;;;;;16.73;100.00;98286.47;4498453;31;20500;-75
2022/06/10 01:57:27;;;;;;;20.90;14.48;;;;;;;16.66;100.00;98286.41;4485624;31;20096;-75
2022/06/10 02:00:03;;;;;;;29.25;15.45;;;;;;;16.70;100.00;98286.84;4485405;31;20083;-75
2022/06/10 02:02:33;;;;;;;21.77;14.95;;;;;;;16.64;100.00;98292.91;4499873;31;20148;-75
2022/06/10 02:05:06;;;;;;;22.98;15.20;;;;;;;16.65;100.00;98300.66;4499360;31;20442;-75
2022/06/10 02:07:37;;;;;;;21.55;15.70;;;;;;;16.67;100.00;98306.56;4498362;31;20779;-75
2022/06/10 02:10:14;;;;;;;22.13;15.48;;;;;;;16.65;100.00;98297.16;4499388;31;20114;-75
2022/06/10 02:12:44;;;;;;;23.98;16.17;;;;;;;16.66;100.00;98320.78;4498100;31;20118;-75
2022/06/10 02:15:15;;;;;;;25.27;16.85;;;;;;;16.57;100.00;98324.56;4498200;31;20144;-75
2022/06/10 02:17:47;;;;;;;25.27;16.98;;;;;;;16.53;100.00;98333.84;4499604;31;20088;-75
2022/06/10 02:20:21;;;;;;;26.10;17.55;;;;;;;16.55;100.00;98339.78;4485106;31;20425;-75
2022/06/10 02:22:48;;;;;;;21.40;15.43;;;;;;;16.57;100.00;98337.78;4498738;31;20068;-75
2022/06/10 02:25:22;;;;;;;24.33;17.00;;;;;;;16.54;100.00;98347.91;4501488;31;20096;-75
2022/06/10 02:27:56;;;;;;;24.65;15.70;;;;;;;16.62;100.00;98346.00;4487478;31;20114;-74
2022/06/10 02:30:35;;;;;;;25.05;16.95;;;;;;;16.67;100.00;98353.38;4500404;31;20429;-75
2022/06/10 02:33:02;;;;;;;27.02;16.70;;;;;;;16.56;100.00;98348.53;4487506;31;20304;-75
2022/06/10 02:35:43;;;;;;;21.55;16.45;;;;;;;16.60;100.00;98352.47;4501594;31;20347;-75
2022/06/10 02:38:51;;;;;;;29.60;16.55;;;;;;;16.65;100.00;98371.22;4487331;31;20096;-74
2022/06/10 02:41:32;;;;;;;25.98;16.48;;;;;;;16.64;100.00;98390.75;4436684;32;20090;-74
2022/06/10 02:44:17;;;;;;;25.58;17.23;;;;;;;16.68;100.00;98395.50;4423881;32;20105;-75
2022/06/10 02:47:17;;;;;;;51.20;19.10;;;;;;;16.65;100.00;98401.16;4424059;32;20109;-74
2022/06/10 02:49:44;;;;;;;30.25;17.52;;;;;;;16.67;100.00;98407.06;4430921;32;20109;-75
2022/06/10 02:52:14;;;;;;;31.80;16.92;;;;;;;16.50;100.00;98374.72;4436607;32;20526;-74
2022/06/10 02:54:42;;;;;;;21.92;15.60;;;;;;;16.45;100.00;98376.28;4423828;32;20121;-74
2022/06/10 02:57:16;;;;;;;27.98;17.00;;;;;;;16.37;100.00;98371.91;4436416;32;20128;-75
2022/06/10 03:03:09;;;;;;;30.60;17.65;;;;;;;16.34;100.00;98398.72;4425742;32;20101;-75
2022/06/10 03:05:40;;;;;;;30.25;16.95;;;;;;;16.40;100.00;98405.91;4436191;32;20131;-75
2022/06/10 03:08:26;;;;;;;27.70;17.52;;;;;;;16.34;100.00;98409.28;4423700;32;20200;-75
2022/06/10 03:11:07;;;;;;;28.77;19.08;;;;;;;16.40;100.00;98416.50;4436254;32;20131;-75
2022/06/10 03:14:05;;;;;;;30.17;18.90;;;;;;;16.34;100.00;98419.88;4423687;32;20107;-75
2022/06/10 03:16:51;;;;;;;30.62;19.55;;;;;;;16.39;100.00;98414.03;4456603;31;20125;-75
2022/06/10 03:19:41;;;;;;;31.65;19.42;;;;;;;16.33;100.00;98405.00;4501362;31;20112;-75
2022/06/10 03:22:39;;;;;;;29.30;18.75;;;;;;;16.35;100.00;98399.53;4501332;31;20092;-74
2022/06/10 03:25:37;;;;;;;29.48;19.42;;;;;;;16.43;100.00;98405.53;4501021;31;20472;-74
2022/06/10 03:28:24;;;;;;;33.83;19.75;;;;;;;16.39;100.00;98406.09;4423369;32;20170;-75
2022/06/10 03:30:54;;;;;;;32.58;19.12;;;;;;;16.41;100.00;98412.84;4423975;32;20101;-75
2022/06/10 03:34:06;;;;;;;29.27;19.23;;;;;;;16.58;100.00;98412.62;4436064;32;20176;-75
2022/06/10 03:36:34;;;;;;;32.00;18.92;;;;;;;16.59;100.00;98419.56;4390207;32;20211;-74
2022/06/10 03:39:03;;;;;;;33.95;18.70;;;;;;;16.73;100.00;98409.97;4390382;32;20112;-74
2022/06/10 03:41:33;;;;;;;29.75;19.58;;;;;;;16.81;100.00;98409.88;4390220;32;20298;-75
2022/06/10 03:44:03;;;;;;;29.90;19.23;;;;;;;16.81;100.00;98409.88;4390410;32;20106;-74
2022/06/10 03:46:32;;;;;;;30.70;18.50;;;;;;;16.87;100.00;98405.69;4390452;32;20411;-74
2022/06/10 03:49:06;;;;;;;28.55;18.42;;;;;;;16.97;100.00;98416.78;4390538;32;20546;-74
2022/06/10 03:51:34;;;;;;;28.50;18.52;;;;;;;17.08;100.00;98421.59;4390318;32;20172;-75
2022/06/10 03:54:01;;;;;;;29.17;18.45;;;;;;;17.17;100.00;98422.31;4390441;32;20118;-75
2022/06/10 03:56:30;;;;;;;27.15;17.75;;;;;;;17.18;100.00;98419.47;4390329;32;20145;-74
2022/06/10 03:58:58;;;;;;;26.98;18.60;;;;;;;17.23;100.00;98416.25;4390323;32;20140;-75
2022/06/10 04:01:25;;;;;;;25.60;17.08;;;;;;;17.38;100.00;98424.13;4390324;32;20123;-74
2022/06/10 04:03:52;;;;;;;27.45;17.98;;;;;;;17.45;100.00;98430.28;4395603;32;20114;-74
2022/06/10 04:06:20;;;;;;;25.73;16.27;;;;;;;17.47;100.00;98423.00;4451451;32;20586;-74
2022/06/10 04:09:07;;;;;;;26.02;16.42;;;;;;;17.45;100.00;98432.94;4451485;32;20136;-74
2022/06/10 04:11:34;;;;;;;26.55;16.87;;;;;;;17.61;100.00;98434.53;4471782;31;20096;-74
2022/06/10 04:14:01;;;;;;;21.73;16.15;;;;;;;17.74;100.00;98436.44;4516851;31;20091;-74
2022/06/10 04:16:29;;;;;;;24.95;15.77;;;;;;;17.84;100.00;98438.78;4516725;31;20087;-74
2022/06/10 04:18:56;;;;;;;20.67;14.23;;;;;;;17.72;100.00;98430.53;4516699;31;20127;-74
2022/06/10 04:21:24;;;;;;;20.95;13.40;;;;;;;17.72;100.00;98422.59;4511997;31;20104;-74
2022/06/10 04:23:51;;;;;;;21.60;13.82;;;;;;;17.66;100.00;98428.66;4515235;31;20489;-73
2022/06/10 04:26:19;;;;;;;22.48;15.02;;;;;;;17.54;100.00;98431.81;4515970;31;20126;-73
2022/06/10 04:28:47;;;;;;;19.65;14.00;;;;;;;17.83;100.00;98437.13;4516566;31;20096;-73
2022/06/10 04:31:14;;;;;;;20.37;14.65;;;;;;;17.81;100.00;98445.28;4511780;31;20465;-73
2022/06/10 04:33:41;;;;;;;18.02;13.80;;;;;;;17.86;100.00;98445.50;4500205;31;20111;-73
2022/06/10 04:36:09;;;;;;;20.45;13.43;;;;;;;17.87;100.00;98446.34;4486474;31;20162;-73
2022/06/10 04:38:37;;;;;;;17.77;12.75;;;;;;;17.89;100.00;98444.34;4499303;31;20064;-73
2022/06/10 04:41:06;;;;;;;16.40;11.95;;;;;;;17.94;100.00;98447.25;4500538;31;20108;-73
2022/06/10 04:43:34;;;;;;;14.80;11.60;;;;;;;17.86;100.00;98444.72;4500345;31;20122;-73
2022/06/10 04:46:05;;;;;;;16.23;11.98;;;;;;;17.88;100.00;98448.81;4500027;31;20095;-73
2022/06/10 04:48:33;;;;;;;13.23;11.07;;;;;;;17.91;100.00;98451.09;4501152;31;20422;-73
2022/06/10 04:51:00;;;;;;;15.05;11.35;;;;;;;17.88;100.00;98448.81;4503695;31;20445;-73
2022/06/10 04:53:28;;;;;;;17.02;11.93;;;;;;;17.92;100.00;98451.91;4500524;31;20152;-73
2022/06/10 04:55:55;;;;;;;17.58;11.70;;;;;;;17.72;100.00;98455.19;4514496;31;20125;-73
2022/06/10 04:58:22;;;;;;;14.27;10.40;;;;;;;17.98;100.00;98456.44;4506640;31;20169;-73
2022/06/10 05:00:49;;;;;;;12.57;10.48;;;;;;;18.00;100.00;98454.44;4509217;31;20096;-73
2022/06/10 05:03:18;;;;;;;13.20;10.25;;;;;;;18.07;100.00;98465.88;4506168;31;20170;-72
2022/06/10 05:05:46;;;;;;;18.10;11.15;;;;;;;18.08;100.00;98464.06;4510255;31;20134;-72
2022/06/10 05:08:15;;;;;;;12.43;9.88;;;;;;;18.17;100.00;98465.56;4497639;31;20587;-73
2022/06/10 05:10:42;;;;;;;15.95;11.00;;;;;;;18.16;100.00;98479.00;4493882;31;20828;-73
2022/06/10 05:13:10;;;;;;;15.57;10.52;;;;;;;18.20;100.00;98470.47;4508624;31;20122;-73
2022/06/10 05:15:38;;;;;;;15.15;10.88;;;;;;;18.14;100.00;98473.06;4514290;31;20115;-73
2022/06/10 05:18:05;;;;;;;12.93;9.55;;;;;;;18.15;100.00;98477.37;4508183;31;20108;-73
2022/06/10 05:20:37;;;;;;;15.00;10.15;;;;;;;18.35;100.00;98483.63;4507866;31;20118;-73
2022/06/10 05:23:04;;;;;;;12.63;9.43;;;;;;;18.14;100.00;98481.84;4510864;31;20118;-73
2022/06/10 05:25:32;;;;;;;15.07;10.25;;;;;;;18.36;100.00;98489.75;4516028;31;20084;-73
2022/06/10 05:27:59;;;;;;;14.50;10.10;;;;;;;18.36;100.00;98481.78;4508541;31;20114;-73
2022/06/10 05:30:30;;;;;;;13.40;10.20;;;;;;;18.22;100.00;98494.97;4504878;31;20095;-73
2022/06/10 05:32:59;;;;;;;14.60;10.63;;;;;;;18.35;100.00;98498.72;4514069;31;20794;-73
2022/06/10 05:35:28;;;;;;;12.65;9.73;;;;;;;18.64;100.00;98500.34;4504065;31;20138;-73
2022/06/10 05:37:55;;;;;;;13.43;9.13;;;;;;;18.75;100.00;98497.13;4485437;31;20080;-75
2022/06/10 05:40:25;;;;;;;14.38;10.57;;;;;;;18.49;100.00;98497.78;4499480;31;20127;-75
2022/06/10 05:42:53;;;;;;;13.27;10.18;;;;;;;18.34;100.00;98507.69;4492529;31;20083;-75
2022/06/10 05:45:21;;;;;;;13.23;9.77;;;;;;;18.23;100.00;98506.41;4514223;31;20096;-75
2022/06/10 05:47:52;;;;;;;14.60;9.65;;;;;;;18.22;100.00;98513.53;4513101;31;20123;-74
2022/06/10 05:50:27;;;;;;;12.98;9.90;;;;;;;18.36;100.00;98516.28;4511628;31;20696;-75
2022/06/10 05:52:55;;;;;;;12.40;9.57;;;;;;;18.51;100.00;98519.62;4509695;31;20091;-75
2022/06/10 05:55:23;;;;;;;16.77;9.25;;;;;;;18.78;100.00;98527.75;4512271;31;20127;-75
2022/06/10 05:57:51;;;;;;;12.48;8.57;;;;;;;18.99;100.00;98531.38;4512452;31;20437;-75
2022/06/10 06:00:25;;;;;;;17.23;10.18;;;;;;;19.14;100.00;98529.37;4501450;31;20581;-75
2022/06/10 06:02:52;;;;;;;12.52;9.30;;;;;;;19.25;100.00;98534.12;4501058;31;20163;-75
2022/06/10 06:05:24;;;;;;;13.77;9.48;;;;;;;19.13;100.00;98535.72;4500021;31;20141;-74
2022/06/10 06:07:51;;;;;;;13.20;9.32;;;;;;;19.21;100.00;98540.84;4501731;31;20092;-74
2022/06/10 06:10:24;;;;;;;20.05;10.32;;;;;;;19.48;100.00;98535.63;4488136;31;20157;-74
2022/06/10 06:12:51;;;;;;;13.20;11.23;;;;;;;19.56;100.00;98540.75;4510332;31;20096;-74
2022/06/10 06:15:19;;;;;;;16.95;11.15;;;;;;;19.43;100.00;98544.19;4511451;31;20143;-73
2022/06/10 06:17:49;;;;;;;15.30;11.43;;;;;;;19.50;100.00;98553.00;4511681;31;20108;-74
2022/06/10 06:20:16;;;;;;;12.90;10.45;;;;;;;19.68;100.00;98540.97;4508447;31;20097;-74
2022/06/10 06:22:43;;;;;;;14.82;11.30;;;;;;;19.46;100.00;98550.94;4513154;31;20112;-75
2022/06/10 06:25:13;;;;;;;14.95;10.95;;;;;;;19.64;100.00;98550.38;4515052;31;20103;-74
2022/06/10 06:27:42;;;;;;;14.65;11.48;;;;;;;19.59;100.00;98544.84;4510035;31;20126;-74
2022/06/10 06:30:15;;;;;;;14.15;9.90;;;;;;;19.57;100.00;98555.66;4512743;31;20100;-75
2022/06/10 06:32:43;;;;;;;14.15;10.73;;;;;;;19.49;100.00;98556.66;4512872;31;20088;-73
2022/06/10 06:35:10;;;;;;;20.42;11.55;;;;;;;19.57;100.00;98562.84;4510482;31;20152;-75
2022/06/10 06:37:38;;;;;;;13.73;10.00;;;;;;;19.47;100.00;98558.72;4506553;31;20083;-77
2022/06/10 06:40:06;;;;;;;10.38;8.80;;;;;;;19.48;100.00;98552.37;4515427;31;20565;-76
2022/06/10 06:42:34;;;;;;;13.88;9.07;;;;;;;19.41;100.00;98567.50;4514258;31;20629;-77
2022/06/10 06:45:06;;;;;;;13.55;9.02;;;;;;;19.60;100.00;98576.53;4514463;31;20080;-75
2022/06/10 06:47:53;;;;;;;15.30;9.00;;;;;;;19.63;100.00;98575.31;4512388;31;20454;-77
2022/06/10 06:50:26;;;;;;;14.70;8.65;;;;;;;19.82;100.00;98579.88;4514596;31;20107;-76
2022/06/10 06:52:53;;;;;;;15.57;8.00;;;;;;;20.03;100.00;98570.13;4487836;31;20160;-75
2022/06/10 06:55:27;;;;;;;9.90;8.20;;;;;;;19.96;100.00;98574.59;4512082;31;20099;-76
2022/06/10 06:57:55;;;;;;;14.23;8.40;;;;;;;20.29;100.00;98571.97;4515164;31;20100;-76
2022/06/10 07:00:23;;;;;;;12.40;7.50;;;;;;;20.29;100.00;98563.97;4512907;31;20122;-76
2022/06/10 07:02:50;;;;;;;8.70;7.80;;;;;;;20.37;98.83;98577.06;4504800;31;20778;-76
2022/06/10 07:05:17;;;;;;;11.07;7.90;;;;;;;20.28;99.83;98578.28;4511671;31;20512;-77
2022/06/10 07:07:45;;;;;;;11.18;7.65;;;;;;;20.60;98.05;98575.81;4503510;31;20103;-75
2022/06/10 07:10:14;;;;;;;13.00;7.47;;;;;;;20.91;97.67;98582.38;4511916;31;20126;-75
2022/06/10 07:12:42;;;;;;;12.63;7.43;;;;;;;21.16;93.72;98584.34;4514493;31;20492;-76
2022/06/10 07:15:09;;;;;;;14.80;7.78;;;;;;;21.33;93.19;98574.81;4508237;31;20104;-78
2022/06/10 07:17:37;;;;;;;10.52;7.10;;;;;;;21.39;92.23;98584.66;4499322;31;20108;-77
2022/06/10 07:20:06;;;;;;;12.82;8.75;;;;;;;21.84;92.70;98585.69;4499091;31;20135;-77
2022/06/10 07:22:33;;;;;;;10.80;7.75;;;;;;;21.70;93.23;98585.75;4497308;31;20125;-75
2022/06/10 07:25:00;;;;;;;9.38;8.15;;;;;;;21.52;92.41;98578.47;4498073;31;20130;-75
2022/06/10 07:27:28;;;;;;;10.90;8.32;;;;;;;21.62;93.55;98586.03;4493181;31;20160;-75
2022/06/10 07:30:04;;;;;;;11.20;9.32;;;;;;;21.47;91.85;98577.44;4499899;31;20116;-76
2022/06/10 07:32:32;;;;;;;13.60;8.75;;;;;;;21.64;90.93;98583.94;4501251;31;20258;-75
2022/06/10 07:34:59;;;;;;;10.60;7.93;;;;;;;21.84;91.95;98581.16;4505740;31;20552;-75
2022/06/10 07:37:26;;;;;;;12.55;8.65;;;;;;;21.65;92.31;98595.41;4505230;31;20092;-75
2022/06/10 07:39:53;;;;;;;9.57;7.30;;;;;;;21.51;92.67;98592.00;4496276;31;20115;-75
2022/06/10 07:42:20;;;;;;;10.95;8.15;;;;;;;21.29;92.46;98592.28;4497863;31;20118;-74
2022/06/10 07:44:48;;;;;;;10.13;8.30;;;;;;;21.28;92.20;98580.78;4497521;31;20124;-75
2022/06/10 07:47:16;;;;;;;10.13;8.20;;;;;;;21.25;93.49;98585.72;4501299;31;20138;-75
2022/06/10 07:49:43;;;;;;;10.27;8.05;;;;;;;21.64;95.34;98591.94;4497269;31;20092;-75
2022/06/10 07:52:10;;;;;;;11.82;9.00;;;;;;;21.70;90.80;98590.28;4491279;31;20156;-75
2022/06/10 07:54:38;;;;;;;14.18;8.88;;;;;;;21.09;93.75;98595.03;4491253;31;20537;-75
2022/06/10 07:57:10;;;;;;;8.60;7.55;;;;;;;21.36;95.03;98595.75;4497547;31;20104;-75
2022/06/10 07:59:40;;;;;;;10.60;8.15;;;;;;;21.59;93.08;98599.75;4498999;31;20112;-76
2022/06/10 08:02:09;;;;;;;11.52;8.27;;;;;;;21.40;90.24;98602.25;4500786;31;20123;-75
2022/06/10 08:04:36;;;;;;;9.85;8.00;;;;;;;21.65;92.23;98614.09;4502406;31;20138;-76
2022/06/10 08:07:04;;;;;;;12.68;7.90;;;;;;;21.86;90.41;98607.59;4496190;31;20172;-75
2022/06/10 08:09:38;;;;;;;9.55;7.10;;;;;;;21.84;90.67;98613.16;4504378;31;20153;-75
2022/06/10 08:12:06;;;;;;;12.07;8.20;;;;;;;21.61;88.42;98613.69;4499956;31;20104;-74
2022/06/10 08:14:33;;;;;;;9.88;6.37;;;;;;;21.59;89.43;98618.41;4508454;31;20086;-75
2022/06/10 08:17:04;;;;;;;9.23;7.22;;;;;;;21.82;87.31;98612.56;4500420;31;20103;-75
2022/06/10 08:19:32;;;;;;;11.90;8.30;;;;;;;21.44;87.74;98608.81;4505621;31;20148;-75
2022/06/10 08:24:46;;;;;;;11.20;7.57;;;;;;;21.07;92.75;98618.38;4511081;31;20495;-75
2022/06/10 08:27:13;;;;;;;11.50;7.07;;;;;;;21.44;91.96;98624.81;4514385;31;20118;-76
2022/06/10 08:29:40;;;;;;;11.38;7.65;;;;;;;21.41;88.63;98624.41;4512423;31;20130;-75
2022/06/10 08:32:08;;;;;;;12.75;8.55;;;;;;;21.38;90.26;98620.31;4509052;31;20088;-76
2022/06/10 08:34:36;;;;;;;11.25;9.02;;;;;;;21.26;91.03;98622.00;4512775;31;20103;-76
2022/06/10 08:37:04;;;;;;;12.82;10.05;;;;;;;21.36;94.33;98625.06;4505358;31;20528;-76
2022/06/10 08:39:31;;;;;;;10.00;8.25;;;;;;;21.38;92.29;98620.31;4511017;31;20096;-76
2022/06/10 08:42:10;;;;;;;12.63;8.48;;;;;;;21.41;92.68;98624.41;4508168;31;20100;-75
2022/06/10 08:44:44;;;;;;;13.90;8.13;;;;;;;21.51;93.18;98624.00;4510772;31;20091;-76
2022/06/10 08:47:22;;;;;;;11.00;7.95;;;;;;;21.47;91.50;98633.41;4511811;31;20164;-76
2022/06/10 08:50:12;;;;;;;10.75;7.72;;;;;;;21.53;90.27;98637.91;4495769;31;20103;-75
2022/06/10 08:52:42;;;;;;;10.38;7.80;;;;;;;21.47;91.67;98633.41;4495206;31;20104;-75
2022/06/10 08:55:15;;;;;;;15.02;7.68;;;;;;;21.93;92.02;98627.06;4506011;31;20075;-75
2022/06/10 08:57:44;;;;;;;;;;;;;;;21.98;89.98;98628.06;4509445;31;20095;-76
2022/06/10 09:00:26;;;;;;;16.35;9.40;;;;;;;21.91;89.62;98629.13;4510248;31;20023;-76
2022/06/10 09:03:17;;;;;;;9.05;6.87;;;;;;;21.79;89.42;98640.47;4490600;31;20123;-76
2022/06/10 09:05:54;;;;;;;11.32;8.13;;;;;;;21.88;90.21;98634.91;4496796;31;20087;-75
2022/06/10 09:08:28;;;;;;;13.50;9.60;;;;;;;22.00;90.78;98643.84;4505817;31;20401;-76
2022/06/10 09:11:06;;;;;;;;;;;;;;;21.65;92.45;98644.25;4496727;31;20147;-76
2022/06/10 09:13:41;;;;;;;10.90;9.00;;;;;;;21.66;92.97;98640.53;4491487;31;19999;-75
2022/06/10 09:16:53;;;;;;;12.88;9.30;;;;;;;21.72;92.96;98637.00;4486797;31;20092;-76
2022/06/10 09:19:41;;;;;;;12.20;9.32;;;;;;;21.86;93.29;98642.28;4449720;32;20092;-76
2022/06/10 09:22:13;;;;;;;11.52;9.18;;;;;;;21.85;93.25;98632.62;4428251;32;20132;-76
2022/06/10 09:25:13;;;;;;;13.02;9.15;;;;;;;22.09;90.83;98636.37;4447002;32;20157;-75
2022/06/10 09:27:44;;;;;;;12.05;8.95;;;;;;;22.42;91.45;98648.72;4372666;32;20095;-74
2022/06/10 09:30:15;;;;;;;12.00;8.57;;;;;;;22.67;88.79;98641.53;4360053;32;20501;-75
2022/06/10 09:33:01;;;;;;;10.07;7.22;;;;;;;22.98;88.52;98636.31;4356599;32;20142;-75
2022/06/10 09:35:28;;;;;;;10.82;7.55;;;;;;;23.10;84.46;98644.47;4376470;32;20157;-74
2022/06/10 09:38:10;;;;;;;11.48;7.45;;;;;;;23.29;84.83;98646.09;4374389;32;20102;-74
2022/06/10 09:40:42;;;;;;;7.82;6.60;;;;;;;23.07;82.47;98645.69;4373015;32;20176;-75
2022/06/10 09:43:47;;;;;;;7.55;5.62;;;;;;;23.22;83.23;98640.00;4370729;32;20235;-75
2022/06/10 09:46:58;;;;;;;11.75;6.32;;;;;;;23.54;80.34;98642.50;4377352;32;20125;-75
2022/06/10 09:49:51;;;;;;;8.65;6.78;;;;;;;23.75;80.21;98641.22;4327786;33;20566;-77
2022/06/10 09:52:51;;;;;;;8.80;5.95;;;;;;;24.00;82.36;98645.66;4327128;33;20244;-75
2022/06/10 09:56:00;;;;;;;6.65;5.90;;;;;;;24.05;77.74;98638.56;4262218;33;20116;-75
2022/06/10 09:58:49;;;;;;;6.40;5.47;;;;;;;23.78;77.47;98643.44;4301518;33;20117;-76
2022/06/10 10:01:31;;;;;;;9.07;6.32;;;;;;;23.88;75.47;98649.09;4300240;33;20105;-74
2022/06/10 10:04:20;;;;;;;7.20;6.12;;;;;;;23.81;77.33;98642.19;4319429;32;20121;-74
2022/06/10 10:07:05;;;;;;;6.57;5.72;;;;;;;23.87;78.35;98649.31;4373185;32;20398;-75
2022/06/10 10:09:46;;;;;;;7.03;5.22;;;;;;;23.98;78.48;98647.75;4371492;32;20161;-75
2022/06/10 10:12:51;;;;;;;6.28;5.40;;;;;;;24.00;75.40;98661.72;4374350;32;20124;-77
2022/06/10 10:15:27;;;;;;;7.97;6.15;;;;;;;24.06;76.23;98650.91;4327800;33;20108;-76
2022/06/10 10:18:24;;;;;;;6.47;5.68;;;;;;;23.99;75.50;98666.25;4327741;33;20613;-75
2022/06/10 10:21:02;;;;;;;7.60;5.50;;;;;;;24.00;75.47;98654.50;4334156;33;20116;-75
2022/06/10 10:23:52;;;;;;;8.90;5.47;;;;;;;24.02;75.04;98665.78;4354181;32;20129;-75
2022/06/10 10:26:37;;;;;;;6.60;5.60;;;;;;;24.05;73.41;98661.84;4372018;32;20099;-75
2022/06/10 10:29:14;;;;;;;10.20;5.70;;;;;;;24.34;74.74;98668.22;4374848;32;20204;-74
2022/06/10 10:31:45;;;;;;;6.05;5.45;;;;;;;24.45;76.45;98670.09;4392606;32;20560;-75
2022/06/10 10:34:20;;;;;;;10.20;6.47;;;;;;;24.61;74.95;98667.84;4402052;32;20098;-76
2022/06/10 10:36:53;;;;;;;13.52;6.15;;;;;;;24.77;75.61;98667.16;4415736;32;20490;-75
2022/06/10 10:39:26;;;;;;;9.98;6.15;;;;;;;24.54;72.60;98667.09;4417759;32;20122;-76
2022/06/10 10:41:56;;;;;;;8.15;6.07;;;;;;;24.61;75.86;98667.84;4419604;32;20253;-75
2022/06/10 10:44:31;;;;;;;8.88;6.37;;;;;;;24.64;77.21;98650.50;4414815;32;20093;-74
2022/06/10 10:47:10;;;;;;;9.75;5.72;;;;;;;24.72;73.90;98687.63;4424439;32;20175;-74
2022/06/10 10:49:44;;;;;;;9.88;5.18;;;;;;;24.45;74.95;98670.09;4419311;32;20102;-74
2022/06/10 10:52:20;;;;;;;6.35;5.32;;;;;;;24.64;73.13;98666.56;4447460;31;20099;-74
2022/06/10 10:54:52;;;;;;;6.03;5.20;;;;;;;24.76;73.18;98659.34;4510738;31;20519;-74
2022/06/10 10:57:22;;;;;;;7.00;5.10;;;;;;;24.67;71.59;98664.22;4495273;31;20107;-74
2022/06/10 11:00:18;;;;;;;6.97;4.85;;;;;;;25.02;74.35;98651.87;4509996;31;20111;-74
2022/06/10 11:02:54;;;;;;;8.65;5.25;;;;;;;24.68;70.36;98665.88;4497814;31;20100;-74
2022/06/10 11:05:32;;;;;;;7.40;5.15;;;;;;;24.72;74.22;98655.50;4483558;31;20108;-74
2022/06/10 11:08:05;;;;;;;7.05;5.15;;;;;;;25.17;74.01;98660.25;4499775;31;20846;-74
2022/06/10 11:10:35;;;;;;;6.03;4.60;;;;;;;24.98;72.08;98660.41;4503255;31;20114;-74
2022/06/10 11:13:06;;;;;;;8.77;4.90;;;;;;;25.15;69.86;98657.00;4488974;31;20221;-74
2022/06/10 11:15:37;;;;;;;6.57;5.22;;;;;;;25.09;73.49;98653.41;4509989;31;20758;-76
2022/06/10 11:18:04;;;;;;;7.90;5.18;;;;;;;25.41;71.62;98649.53;4507480;31;20130;-72
2022/06/10 11:20:33;;;;;;;7.60;5.68;;;;;;;25.31;70.46;98667.03;4507085;31;20154;-73
2022/06/10 11:23:18;;;;;;;9.45;5.12;;;;;;;25.12;69.71;98668.19;4506009;31;20110;-73
2022/06/10 11:26:18;;;;;;;4.97;4.43;;;;;;;25.04;70.04;98660.50;4508440;31;20111;-73
2022/06/10 11:28:46;;;;;;;8.68;4.90;;;;;;;25.38;70.62;98655.38;4497553;31;20114;-73
2022/06/10 11:31:40;;;;;;;8.68;4.62;;;;;;;25.24;67.54;98652.06;4510351;31;20244;-74
2022/06/10 11:34:21;;;;;;;9.70;4.70;;;;;;;25.61;69.34;98649.94;4510627;31;20103;-73
2022/06/10 11:36:51;;;;;;;8.07;5.00;;;;;;;25.28;69.79;98640.66;4508246;31;20526;-73
2022/06/10 11:39:27;;;;;;;6.47;4.72;;;;;;;25.39;68.73;98635.53;4508513;31;20096;-73
2022/06/10 11:42:17;;;;;;;6.30;4.35;;;;;;;25.48;69.47;98634.94;4490277;31;21065;-73
2022/06/10 11:44:53;;;;;;;8.25;5.70;;;;;;;25.43;69.98;98642.88;4514291;31;20175;-73
2022/06/10 11:47:32;;;;;;;5.65;5.05;;;;;;;25.26;70.42;98644.63;4495582;31;20151;-73
2022/06/10 11:50:06;;;;;;;6.78;5.18;;;;;;;25.45;70.57;98634.56;4493567;31;20099;-73
2022/06/10 11:52:37;;;;;;;9.45;5.37;;;;;;;25.41;71.46;98636.13;4495373;31;20525;-73
2022/06/10 11:55:09;;;;;;;7.07;5.10;;;;;;;25.40;70.28;98629.13;4491169;31;20123;-73
2022/06/10 12:00:46;;;;;;;6.75;5.20;;;;;;;25.95;71.41;98638.47;4504252;31;20150;-73